sensor_id;sensor_type;location;lat;lon;timestamp;pressure;altitude;pressure_sealevel;temperature;humidity
48364;BME280;34170;54.364;18.582;2023-02-28T00:01:30;101799.31;;;-2.08;98.40
48364;BME280;34170;54.364;18.582;2023-02-28T00:03:58;101804.72;;;-2.16;99.18
48364;BME280;34170;54.364;18.582;2023-02-28T00:06:25;101803.84;;;-2.17;99.89
48364;BME280;34170;54.364;18.582;2023-02-28T00:08:53;101809.06;;;-2.14;99.24
48364;BME280;34170;54.364;18.582;2023-02-28T00:11:21;101807.47;;;-2.22;99.62
48364;BME280;34170;54.364;18.582;2023-02-28T00:13:49;101804.94;;;-2.27;99.83
48364;BME280;34170;54.364;18.582;2023-02-28T00:16:19;101814.47;;;-2.20;99.56
48364;BME280;34170;54.364;18.582;2023-02-28T00:18:47;101812.66;;;-2.18;100.00
48364;BME280;34170;54.364;18.582;2023-02-28T00:21:16;101807.56;;;-2.27;99.76
48364;BME280;34170;54.364;18.582;2023-02-28T00:23:44;101809.47;;;-2.38;99.64
48364;BME280;34170;54.364;18.582;2023-02-28T00:26:12;101814.75;;;-2.38;99.59
48364;BME280;34170;54.364;18.582;2023-02-28T00:28:44;101814.88;;;-2.44;100.00
48364;BME280;34170;54.364;18.582;2023-02-28T00:31:11;101813.13;;;-2.45;100.00
48364;BME280;34170;54.364;18.582;2023-02-28T00:33:39;101821.94;;;-2.46;100.00
48364;BME280;34170;54.364;18.582;2023-02-28T00:36:09;101816.72;;;-2.51;100.00
48364;BME280;34170;54.364;18.582;2023-02-28T00:38:38;101827.19;;;-2.45;100.00
48364;BME280;34170;54.364;18.582;2023-02-28T00:41:07;101821.03;;;-2.47;100.00
48364;BME280;34170;54.364;18.582;2023-02-28T00:43:36;101830.72;;;-2.47;100.00
48364;BME280;34170;54.364;18.582;2023-02-28T00:46:04;101817.56;;;-2.51;100.00
48364;BME280;34170;54.364;18.582;2023-02-28T00:48:33;101820.13;;;-2.44;100.00
48364;BME280;34170;54.364;18.582;2023-02-28T00:51:00;101828.88;;;-2.42;100.00
48364;BME280;34170;54.364;18.582;2023-02-28T00:53:28;101819.31;;;-2.48;100.00
48364;BME280;34170;54.364;18.582;2023-02-28T00:55:57;101819.28;;;-2.46;100.00
48364;BME280;34170;54.364;18.582;2023-02-28T00:58:26;101831.50;;;-2.41;100.00
48364;BME280;34170;54.364;18.582;2023-02-28T01:00:54;101827.81;;;-2.31;100.00
48364;BME280;34170;54.364;18.582;2023-02-28T01:03:23;101821.72;;;-2.34;100.00
48364;BME280;34170;54.364;18.582;2023-02-28T01:05:50;101831.19;;;-2.22;99.98
48364;BME280;34170;54.364;18.582;2023-02-28T01:08:20;101825.06;;;-2.23;99.55
48364;BME280;34170;54.364;18.582;2023-02-28T01:10:48;101824.09;;;-2.19;98.87
48364;BME280;34170;54.364;18.582;2023-02-28T01:13:15;101822.72;;;-2.41;100.00
48364;BME280;34170;54.364;18.582;2023-02-28T01:15:50;101809.31;;;-2.29;99.78
48364;BME280;34170;54.364;18.582;2023-02-28T01:18:20;101807.09;;;-2.02;98.86
48364;BME280;34170;54.364;18.582;2023-02-28T01:20:48;101827.03;;;-2.36;98.03
48364;BME280;34170;54.364;18.582;2023-02-28T01:23:16;101828.69;;;-2.30;98.57
48364;BME280;34170;54.364;18.582;2023-02-28T01:25:43;101827.88;;;-2.35;99.32
48364;BME280;34170;54.364;18.582;2023-02-28T01:28:11;101817.53;;;-2.47;99.32
48364;BME280;34170;54.364;18.582;2023-02-28T01:30:38;101819.44;;;-2.56;100.00
48364;BME280;34170;54.364;18.582;2023-02-28T01:33:06;101816.03;;;-2.64;100.00
48364;BME280;34170;54.364;18.582;2023-02-28T01:35:34;101809.81;;;-2.60;100.00
48364;BME280;34170;54.364;18.582;2023-02-28T01:38:02;101805.31;;;-2.50;99.60
48364;BME280;34170;54.364;18.582;2023-02-28T01:40:47;101815.03;;;-2.54;99.37
48364;BME280;34170;54.364;18.582;2023-02-28T01:43:30;101804.38;;;-2.47;99.58
48364;BME280;34170;54.364;18.582;2023-02-28T01:45:58;101807.84;;;-2.45;99.25
48364;BME280;34170;54.364;18.582;2023-02-28T01:48:32;101812.25;;;-2.46;98.47
48364;BME280;34170;54.364;18.582;2023-02-28T01:51:06;101810.25;;;-2.30;98.93
48364;BME280;34170;54.364;18.582;2023-02-28T01:53:52;101792.63;;;-2.28;97.92
48364;BME280;34170;54.364;18.582;2023-02-28T01:56:24;101805.22;;;-2.47;98.35
48364;BME280;34170;54.364;18.582;2023-02-28T01:58:54;101808.19;;;-2.67;99.31
48364;BME280;34170;54.364;18.582;2023-02-28T02:01:23;101807.13;;;-2.54;99.48
48364;BME280;34170;54.364;18.582;2023-02-28T02:03:56;101806.81;;;-2.35;98.84
48364;BME280;34170;54.364;18.582;2023-02-28T02:06:29;101798.31;;;-2.53;98.55
48364;BME280;34170;54.364;18.582;2023-02-28T02:08:57;101801.91;;;-2.58;99.17
48364;BME280;34170;54.364;18.582;2023-02-28T02:11:25;101802.03;;;-2.66;99.82
48364;BME280;34170;54.364;18.582;2023-02-28T02:25:37;101817.00;;;-2.68;100.00
48364;BME280;34170;54.364;18.582;2023-02-28T02:28:43;101812.38;;;-2.54;100.00
48364;BME280;34170;54.364;18.582;2023-02-28T02:37:28;101824.28;;;-2.85;100.00
48364;BME280;34170;54.364;18.582;2023-02-28T02:42:44;101815.75;;;-3.04;100.00
48364;BME280;34170;54.364;18.582;2023-02-28T02:45:22;101815.47;;;-2.84;100.00
48364;BME280;34170;54.364;18.582;2023-02-28T02:47:55;101810.84;;;-2.69;100.00
48364;BME280;34170;54.364;18.582;2023-02-28T02:50:29;101812.88;;;-2.30;98.06
48364;BME280;34170;54.364;18.582;2023-02-28T02:53:00;101796.97;;;-2.25;96.47
48364;BME280;34170;54.364;18.582;2023-02-28T02:55:31;101829.31;;;-2.14;95.61
48364;BME280;34170;54.364;18.582;2023-02-28T02:58:04;101810.84;;;-2.14;95.38
48364;BME280;34170;54.364;18.582;2023-02-28T03:00:41;101822.88;;;-1.99;94.74
48364;BME280;34170;54.364;18.582;2023-02-28T03:03:11;101827.47;;;-2.09;95.66
48364;BME280;34170;54.364;18.582;2023-02-28T03:05:46;101817.56;;;-1.98;95.40
48364;BME280;34170;54.364;18.582;2023-02-28T03:08:14;101817.78;;;-2.08;95.08
48364;BME280;34170;54.364;18.582;2023-02-28T03:10:43;101817.75;;;-2.07;94.69
48364;BME280;34170;54.364;18.582;2023-02-28T03:16:07;101828.31;;;-2.08;94.25
48364;BME280;34170;54.364;18.582;2023-02-28T03:21:40;101816.22;;;-2.22;94.28
48364;BME280;34170;54.364;18.582;2023-02-28T03:25:09;101825.09;;;-2.26;94.17
48364;BME280;34170;54.364;18.582;2023-02-28T03:27:24;101825.38;;;-2.41;95.12
48364;BME280;34170;54.364;18.582;2023-02-28T03:30:04;101826.22;;;-2.41;94.83
48364;BME280;34170;54.364;18.582;2023-02-28T03:32:39;101829.75;;;-2.43;95.09
48364;BME280;34170;54.364;18.582;2023-02-28T03:35:12;101838.47;;;-2.38;94.69
48364;BME280;34170;54.364;18.582;2023-02-28T03:37:43;101835.84;;;-2.38;94.87
48364;BME280;34170;54.364;18.582;2023-02-28T03:40:19;101835.03;;;-2.43;94.87
48364;BME280;34170;54.364;18.582;2023-02-28T03:42:53;101832.47;;;-2.46;94.89
48364;BME280;34170;54.364;18.582;2023-02-28T03:45:25;101826.28;;;-2.45;95.34
48364;BME280;34170;54.364;18.582;2023-02-28T03:50:24;101830.84;;;-2.55;95.35
48364;BME280;34170;54.364;18.582;2023-02-28T03:55:52;101826.44;;;-2.55;95.16
48364;BME280;34170;54.364;18.582;2023-02-28T04:01:01;101823.97;;;-2.67;95.89
48364;BME280;34170;54.364;18.582;2023-02-28T04:03:36;101818.81;;;-2.72;95.60
48364;BME280;34170;54.364;18.582;2023-02-28T04:06:07;101829.28;;;-2.69;97.19
48364;BME280;34170;54.364;18.582;2023-02-28T04:08:35;101817.66;;;-2.55;96.37
48364;BME280;34170;54.364;18.582;2023-02-28T04:11:36;101837.13;;;-2.64;96.21
48364;BME280;34170;54.364;18.582;2023-02-28T04:14:05;101826.72;;;-2.72;96.89
48364;BME280;34170;54.364;18.582;2023-02-28T04:16:37;101831.16;;;-2.77;96.57
48364;BME280;34170;54.364;18.582;2023-02-28T04:19:06;101821.66;;;-2.89;97.33
48364;BME280;34170;54.364;18.582;2023-02-28T04:21:43;101836.47;;;-2.80;97.14
48364;BME280;34170;54.364;18.582;2023-02-28T04:24:13;101831.16;;;-2.75;97.00
48364;BME280;34170;54.364;18.582;2023-02-28T04:26:45;101823.47;;;-2.92;96.83
48364;BME280;34170;54.364;18.582;2023-02-28T04:29:19;101817.41;;;-2.99;97.65
48364;BME280;34170;54.364;18.582;2023-02-28T04:31:47;101827.91;;;-2.96;98.75
48364;BME280;34170;54.364;18.582;2023-02-28T04:34:15;101816.72;;;-3.10;99.74
48364;BME280;34170;54.364;18.582;2023-02-28T04:36:43;101821.13;;;-3.12;99.91
48364;BME280;34170;54.364;18.582;2023-02-28T04:39:12;101819.88;;;-2.87;99.32
48364;BME280;34170;54.364;18.582;2023-02-28T04:41:40;101821.53;;;-2.79;98.48
48364;BME280;34170;54.364;18.582;2023-02-28T04:44:08;101823.44;;;-2.88;98.07
48364;BME280;34170;54.364;18.582;2023-02-28T04:46:35;101807.81;;;-3.01;98.96
48364;BME280;34170;54.364;18.582;2023-02-28T04:49:03;101814.69;;;-2.91;99.21
48364;BME280;34170;54.364;18.582;2023-02-28T04:51:30;101819.31;;;-3.07;99.28
48364;BME280;34170;54.364;18.582;2023-02-28T04:53:58;101817.66;;;-3.16;100.00
48364;BME280;34170;54.364;18.582;2023-02-28T04:56:26;101815.09;;;-3.22;99.90
48364;BME280;34170;54.364;18.582;2023-02-28T04:58:53;101808.88;;;-3.15;99.55
48364;BME280;34170;54.364;18.582;2023-02-28T05:03:50;101816.75;;;-3.13;98.77
48364;BME280;34170;54.364;18.582;2023-02-28T05:06:18;101809.78;;;-3.16;99.75
48364;BME280;34170;54.364;18.582;2023-02-28T05:08:47;101820.25;;;-3.11;99.02
48364;BME280;34170;54.364;18.582;2023-02-28T05:11:27;101824.72;;;-3.18;99.26
48364;BME280;34170;54.364;18.582;2023-02-28T05:14:09;101826.50;;;-3.21;99.46
48364;BME280;34170;54.364;18.582;2023-02-28T05:16:37;101818.78;;;-3.34;100.00
48364;BME280;34170;54.364;18.582;2023-02-28T05:19:05;101821.31;;;-3.28;100.00
48364;BME280;34170;54.364;18.582;2023-02-28T05:21:36;101820.47;;;-3.31;100.00
48364;BME280;34170;54.364;18.582;2023-02-28T05:24:05;101829.13;;;-3.20;100.00
48364;BME280;34170;54.364;18.582;2023-02-28T05:26:37;101830.06;;;-3.26;100.00
48364;BME280;34170;54.364;18.582;2023-02-28T05:29:05;101824.91;;;-3.35;100.00
48364;BME280;34170;54.364;18.582;2023-02-28T05:31:33;101811.84;;;-3.41;100.00
48364;BME280;34170;54.364;18.582;2023-02-28T05:34:00;101806.28;;;-3.16;100.00
48364;BME280;34170;54.364;18.582;2023-02-28T05:36:28;101800.13;;;-3.18;100.00
48364;BME280;34170;54.364;18.582;2023-02-28T05:38:56;101796.44;;;-3.02;99.34
48364;BME280;34170;54.364;18.582;2023-02-28T05:41:23;101813.78;;;-2.89;98.39
48364;BME280;34170;54.364;18.582;2023-02-28T05:43:51;101804.31;;;-3.02;98.30
48364;BME280;34170;54.364;18.582;2023-02-28T05:46:18;101810.50;;;-3.06;98.02
48364;BME280;34170;54.364;18.582;2023-02-28T05:48:47;101809.50;;;-2.97;98.33
48364;BME280;34170;54.364;18.582;2023-02-28T05:51:16;101810.13;;;-2.78;97.54
48364;BME280;34170;54.364;18.582;2023-02-28T05:53:43;101808.66;;;-2.98;97.91
48364;BME280;34170;54.364;18.582;2023-02-28T05:56:11;101794.47;;;-2.89;96.95
48364;BME280;34170;54.364;18.582;2023-02-28T05:58:38;101798.13;;;-2.98;96.72
48364;BME280;34170;54.364;18.582;2023-02-28T06:01:40;101809.22;;;-2.77;96.89
48364;BME280;34170;54.364;18.582;2023-02-28T06:04:10;101810.16;;;-2.81;96.01
48364;BME280;34170;54.364;18.582;2023-02-28T06:06:55;101803.94;;;-2.21;95.71
48364;BME280;34170;54.364;18.582;2023-02-28T06:09:24;101797.63;;;-1.64;91.46
48364;BME280;34170;54.364;18.582;2023-02-28T06:11:52;101812.63;;;-1.24;85.91
48364;BME280;34170;54.364;18.582;2023-02-28T06:14:20;101817.03;;;-0.47;85.51
48364;BME280;34170;54.364;18.582;2023-02-28T06:16:48;101814.44;;;0.21;80.28
48364;BME280;34170;54.364;18.582;2023-02-28T06:19:15;101813.50;;;0.54;75.64
48364;BME280;34170;54.364;18.582;2023-02-28T06:21:43;101833.88;;;0.82;72.61
48364;BME280;34170;54.364;18.582;2023-02-28T06:24:10;101822.28;;;1.44;70.64
48364;BME280;34170;54.364;18.582;2023-02-28T06:26:38;101812.28;;;3.02;65.81
48364;BME280;34170;54.364;18.582;2023-02-28T06:29:05;101810.59;;;3.88;55.63
48364;BME280;34170;54.364;18.582;2023-02-28T06:31:33;101812.84;;;5.34;50.23
48364;BME280;34170;54.364;18.582;2023-02-28T06:34:00;101827.50;;;7.00;44.84
48364;BME280;34170;54.364;18.582;2023-02-28T06:36:28;101833.72;;;8.70;42.57
48364;BME280;34170;54.364;18.582;2023-02-28T06:38:55;101826.94;;;8.19;40.94
48364;BME280;34170;54.364;18.582;2023-02-28T06:41:25;101829.28;;;9.81;39.68
48364;BME280;34170;54.364;18.582;2023-02-28T06:43:53;101828.88;;;9.32;38.29
48364;BME280;34170;54.364;18.582;2023-02-28T06:46:21;101826.28;;;10.38;36.19
48364;BME280;34170;54.364;18.582;2023-02-28T06:48:49;101824.25;;;10.42;37.14
48364;BME280;34170;54.364;18.582;2023-02-28T06:51:19;101837.63;;;11.19;34.66
48364;BME280;34170;54.364;18.582;2023-02-28T06:53:49;101822.06;;;11.83;34.35
48364;BME280;34170;54.364;18.582;2023-02-28T06:56:18;101828.94;;;12.00;33.43
48364;BME280;34170;54.364;18.582;2023-02-28T06:58:48;101827.38;;;12.90;31.78
48364;BME280;34170;54.364;18.582;2023-02-28T07:01:16;101833.13;;;13.74;31.04
48364;BME280;34170;54.364;18.582;2023-02-28T07:03:44;101825.34;;;13.48;31.74
48364;BME280;34170;54.364;18.582;2023-02-28T07:06:12;101829.38;;;14.19;30.06
48364;BME280;34170;54.364;18.582;2023-02-28T07:08:39;101832.53;;;15.28;29.31
48364;BME280;34170;54.364;18.582;2023-02-28T07:11:08;101827.63;;;15.91;28.20
48364;BME280;34170;54.364;18.582;2023-02-28T07:13:36;101832.34;;;15.99;27.13
48364;BME280;34170;54.364;18.582;2023-02-28T07:16:05;101832.91;;;15.13;27.86
48364;BME280;34170;54.364;18.582;2023-02-28T07:18:35;101836.06;;;15.28;27.71
48364;BME280;34170;54.364;18.582;2023-02-28T07:21:04;101834.72;;;15.73;27.74
48364;BME280;34170;54.364;18.582;2023-02-28T07:23:32;101831.63;;;15.97;27.12
48364;BME280;34170;54.364;18.582;2023-02-28T07:26:00;101836.59;;;15.72;26.65
48364;BME280;34170;54.364;18.582;2023-02-28T07:28:27;101835.06;;;15.99;27.25
48364;BME280;34170;54.364;18.582;2023-02-28T07:30:55;101828.66;;;15.30;27.86
48364;BME280;34170;54.364;18.582;2023-02-28T07:33:22;101837.22;;;15.25;27.49
48364;BME280;34170;54.364;18.582;2023-02-28T07:35:51;101834.63;;;16.04;26.96
48364;BME280;34170;54.364;18.582;2023-02-28T07:38:18;101821.84;;;16.43;26.24
48364;BME280;34170;54.364;18.582;2023-02-28T07:40:46;101822.88;;;16.32;26.51
48364;BME280;34170;54.364;18.582;2023-02-28T07:43:13;101828.16;;;16.34;26.37
48364;BME280;34170;54.364;18.582;2023-02-28T07:45:41;101837.22;;;16.72;25.46
48364;BME280;34170;54.364;18.582;2023-02-28T07:48:08;101839.06;;;15.85;26.30
48364;BME280;34170;54.364;18.582;2023-02-28T07:50:37;101840.31;;;14.80;28.31
48364;BME280;34170;54.364;18.582;2023-02-28T07:53:04;101840.91;;;15.75;26.83
48364;BME280;34170;54.364;18.582;2023-02-28T07:55:32;101839.88;;;17.01;26.25
48364;BME280;34170;54.364;18.582;2023-02-28T07:57:59;101841.78;;;16.71;26.13
48364;BME280;34170;54.364;18.582;2023-02-28T08:00:27;101840.81;;;16.63;26.41
48364;BME280;34170;54.364;18.582;2023-02-28T08:02:56;101861.25;;;17.42;25.94
48364;BME280;34170;54.364;18.582;2023-02-28T08:05:23;101835.06;;;17.13;25.67
48364;BME280;34170;54.364;18.582;2023-02-28T08:07:50;101840.25;;;17.62;25.09
48364;BME280;34170;54.364;18.582;2023-02-28T08:10:18;101832.19;;;16.00;27.13
48364;BME280;34170;54.364;18.582;2023-02-28T08:12:45;101847.66;;;17.14;25.93
48364;BME280;34170;54.364;18.582;2023-02-28T08:15:13;101828.72;;;17.22;25.15
48364;BME280;34170;54.364;18.582;2023-02-28T08:17:40;101834.31;;;17.66;25.03
48364;BME280;34170;54.364;18.582;2023-02-28T08:20:08;101827.25;;;18.54;24.49
48364;BME280;34170;54.364;18.582;2023-02-28T08:22:37;101831.50;;;17.86;24.43
48364;BME280;34170;54.364;18.582;2023-02-28T08:25:05;101816.63;;;18.95;23.87
48364;BME280;34170;54.364;18.582;2023-02-28T08:27:34;101824.88;;;19.62;22.93
48364;BME280;34170;54.364;18.582;2023-02-28T08:30:03;101814.59;;;18.00;24.55
48364;BME280;34170;54.364;18.582;2023-02-28T08:32:32;101819.03;;;18.45;24.27
48364;BME280;34170;54.364;18.582;2023-02-28T08:35:00;101824.34;;;17.11;26.26
48364;BME280;34170;54.364;18.582;2023-02-28T08:37:28;101816.06;;;18.13;24.09
48364;BME280;34170;54.364;18.582;2023-02-28T08:39:56;101804.22;;;18.74;24.06
48364;BME280;34170;54.364;18.582;2023-02-28T08:42:24;101801.25;;;18.59;25.29
48364;BME280;34170;54.364;18.582;2023-02-28T08:44:51;101799.84;;;19.75;23.19
48364;BME280;34170;54.364;18.582;2023-02-28T08:47:19;101807.44;;;18.43;24.01
48364;BME280;34170;54.364;18.582;2023-02-28T08:49:46;101801.69;;;18.46;23.70
48364;BME280;34170;54.364;18.582;2023-02-28T08:52:13;101807.88;;;19.26;23.74
48364;BME280;34170;54.364;18.582;2023-02-28T08:54:41;101819.75;;;16.84;25.51
48364;BME280;34170;54.364;18.582;2023-02-28T08:57:08;101814.59;;;18.00;25.33
48364;BME280;34170;54.364;18.582;2023-02-28T08:59:36;101811.41;;;17.51;24.90
48364;BME280;34170;54.364;18.582;2023-02-28T09:02:03;101820.47;;;17.78;24.14
48364;BME280;34170;54.364;18.582;2023-02-28T09:04:31;101817.16;;;17.66;25.16
48364;BME280;34170;54.364;18.582;2023-02-28T09:06:58;101826.25;;;17.57;25.06
48364;BME280;34170;54.364;18.582;2023-02-28T09:09:25;101822.41;;;18.39;24.72
48364;BME280;34170;54.364;18.582;2023-02-28T09:11:55;101827.06;;;18.03;24.79
48364;BME280;34170;54.364;18.582;2023-02-28T09:14:23;101832.03;;;19.12;24.24
48364;BME280;34170;54.364;18.582;2023-02-28T09:16:50;101832.56;;;18.55;23.67
48364;BME280;34170;54.364;18.582;2023-02-28T09:19:18;101821.28;;;16.96;25.98
48364;BME280;34170;54.364;18.582;2023-02-28T09:21:46;101830.50;;;17.77;25.52
48364;BME280;34170;54.364;18.582;2023-02-28T09:24:13;101832.53;;;17.57;25.47
48364;BME280;34170;54.364;18.582;2023-02-28T09:26:42;101833.38;;;18.29;24.68
48364;BME280;34170;54.364;18.582;2023-02-28T09:29:31;101828.19;;;17.64;24.93
48364;BME280;34170;54.364;18.582;2023-02-28T09:31:58;101821.63;;;17.39;24.92
48364;BME280;34170;54.364;18.582;2023-02-28T09:34:27;101828.03;;;17.84;25.27
48364;BME280;34170;54.364;18.582;2023-02-28T09:36:57;101833.66;;;18.00;25.23
48364;BME280;34170;54.364;18.582;2023-02-28T09:39:25;101838.66;;;18.31;24.14
48364;BME280;34170;54.364;18.582;2023-02-28T09:41:55;101825.66;;;17.99;25.04
48364;BME280;34170;54.364;18.582;2023-02-28T09:44:37;101831.91;;;18.35;24.40
48364;BME280;34170;54.364;18.582;2023-02-28T09:47:20;101839.38;;;18.15;24.10
48364;BME280;34170;54.364;18.582;2023-02-28T09:49:53;101841.00;;;18.44;24.26
48364;BME280;34170;54.364;18.582;2023-02-28T09:52:28;101837.38;;;18.88;24.39
48364;BME280;34170;54.364;18.582;2023-02-28T09:55:19;101830.56;;;17.31;24.68
48364;BME280;34170;54.364;18.582;2023-02-28T09:57:47;101823.75;;;16.80;25.59
48364;BME280;34170;54.364;18.582;2023-02-28T10:00:19;101816.50;;;17.36;25.52
48364;BME280;34170;54.364;18.582;2023-02-28T10:05:20;101835.03;;;17.68;25.46
48364;BME280;34170;54.364;18.582;2023-02-28T10:08:18;101809.31;;;16.42;27.03
48364;BME280;34170;54.364;18.582;2023-02-28T10:10:57;101816.28;;;16.54;26.29
48364;BME280;34170;54.364;18.582;2023-02-28T10:13:35;101813.91;;;16.12;26.22
48364;BME280;34170;54.364;18.582;2023-02-28T10:18:43;101809.91;;;16.16;27.06
48364;BME280;34170;54.364;18.582;2023-02-28T10:21:15;101817.91;;;16.75;25.41
48364;BME280;34170;54.364;18.582;2023-02-28T10:23:45;101796.47;;;15.66;27.15
48364;BME280;34170;54.364;18.582;2023-02-28T10:26:16;101799.59;;;16.77;26.10
48364;BME280;34170;54.364;18.582;2023-02-28T10:28:44;101805.22;;;15.99;26.45
48364;BME280;34170;54.364;18.582;2023-02-28T10:31:17;101795.78;;;15.93;26.64
48364;BME280;34170;54.364;18.582;2023-02-28T10:33:45;101800.69;;;16.47;27.11
48364;BME280;34170;54.364;18.582;2023-02-28T10:36:19;101813.38;;;17.03;26.22
48364;BME280;34170;54.364;18.582;2023-02-28T10:38:49;101809.97;;;17.01;26.15
48364;BME280;34170;54.364;18.582;2023-02-28T10:41:29;101800.81;;;16.55;26.58
48364;BME280;34170;54.364;18.582;2023-02-28T10:44:14;101803.56;;;14.87;28.98
48364;BME280;34170;54.364;18.582;2023-02-28T10:46:45;101806.81;;;16.49;26.73
48364;BME280;34170;54.364;18.582;2023-02-28T10:49:28;101809.28;;;15.44;27.55
48364;BME280;34170;54.364;18.582;2023-02-28T10:51:59;101813.06;;;15.13;28.44
48364;BME280;34170;54.364;18.582;2023-02-28T10:54:30;101806.22;;;15.88;27.95
48364;BME280;34170;54.364;18.582;2023-02-28T10:59:36;101802.94;;;15.15;28.28
48364;BME280;34170;54.364;18.582;2023-02-28T11:02:36;101803.03;;;14.42;29.22
48364;BME280;34170;54.364;18.582;2023-02-28T11:05:25;101798.47;;;15.04;28.96
48364;BME280;34170;54.364;18.582;2023-02-28T11:07:55;101788.06;;;13.96;29.94
48364;BME280;34170;54.364;18.582;2023-02-28T11:10:26;101786.72;;;14.53;29.29
48364;BME280;34170;54.364;18.582;2023-02-28T11:12:56;101772.09;;;14.35;29.88
48364;BME280;34170;54.364;18.582;2023-02-28T11:15:29;101785.41;;;14.68;29.17
48364;BME280;34170;54.364;18.582;2023-02-28T11:20:57;101791.38;;;14.20;29.92
48364;BME280;34170;54.364;18.582;2023-02-28T11:23:26;101780.91;;;12.06;33.23
48364;BME280;34170;54.364;18.582;2023-02-28T11:25:59;101776.13;;;11.85;33.10
48364;BME280;34170;54.364;18.582;2023-02-28T11:31:18;101762.69;;;10.11;36.04
48364;BME280;34170;54.364;18.582;2023-02-28T11:33:54;101759.41;;;9.68;37.40
48364;BME280;34170;54.364;18.582;2023-02-28T11:36:26;101766.00;;;8.52;40.08
48364;BME280;34170;54.364;18.582;2023-02-28T11:38:57;101766.81;;;8.24;41.25
48364;BME280;34170;54.364;18.582;2023-02-28T11:41:32;101759.50;;;7.97;41.44
48364;BME280;34170;54.364;18.582;2023-02-28T11:44:30;101746.78;;;7.40;42.19
48364;BME280;34170;54.364;18.582;2023-02-28T11:46:58;101742.78;;;6.85;42.76
48364;BME280;34170;54.364;18.582;2023-02-28T11:49:40;101724.66;;;6.90;43.03
48364;BME280;34170;54.364;18.582;2023-02-28T11:55:05;101734.78;;;6.36;45.88
48364;BME280;34170;54.364;18.582;2023-02-28T12:20:28;101710.47;;;5.89;46.78
48364;BME280;34170;54.364;18.582;2023-02-28T12:23:55;101711.09;;;5.77;47.94
48364;BME280;34170;54.364;18.582;2023-02-28T12:26:16;101713.84;;;5.76;47.06
48364;BME280;34170;54.364;18.582;2023-02-28T12:28:58;101695.03;;;5.96;46.34
48364;BME280;34170;54.364;18.582;2023-02-28T12:31:36;101700.91;;;5.68;48.56
48364;BME280;34170;54.364;18.582;2023-02-28T12:34:10;101715.09;;;5.68;48.73
48364;BME280;34170;54.364;18.582;2023-02-28T12:36:41;101714.81;;;5.57;48.69
48364;BME280;34170;54.364;18.582;2023-02-28T12:39:35;101700.44;;;5.60;48.38
48364;BME280;34170;54.364;18.582;2023-02-28T12:42:26;101704.81;;;5.43;50.75
48364;BME280;34170;54.364;18.582;2023-02-28T12:45:06;101689.81;;;5.76;48.52
48364;BME280;34170;54.364;18.582;2023-02-28T12:47:38;101701.06;;;5.65;50.08
48364;BME280;34170;54.364;18.582;2023-02-28T12:50:10;101687.78;;;5.81;49.72
48364;BME280;34170;54.364;18.582;2023-02-28T12:52:56;101677.81;;;5.67;49.77
48364;BME280;34170;54.364;18.582;2023-02-28T12:55:49;101699.72;;;5.21;50.29
48364;BME280;34170;54.364;18.582;2023-02-28T12:58:39;101693.22;;;5.44;50.23
48364;BME280;34170;54.364;18.582;2023-02-28T13:06:53;101703.03;;;5.79;49.91
48364;BME280;34170;54.364;18.582;2023-02-28T13:09:15;101694.78;;;5.66;50.27
48364;BME280;34170;54.364;18.582;2023-02-28T13:12:13;101690.31;;;5.66;49.71
48364;BME280;34170;54.364;18.582;2023-02-28T13:14:41;101680.03;;;5.76;48.51
48364;BME280;34170;54.364;18.582;2023-02-28T13:19:39;101684.41;;;5.77;49.56
48364;BME280;34170;54.364;18.582;2023-02-28T13:22:35;101682.59;;;5.78;50.12
48364;BME280;34170;54.364;18.582;2023-02-28T13:27:52;101686.44;;;5.20;51.25
48364;BME280;34170;54.364;18.582;2023-02-28T13:33:27;101685.28;;;5.43;50.35
48364;BME280;34170;54.364;18.582;2023-02-28T13:36:31;101668.03;;;5.67;49.60
48364;BME280;34170;54.364;18.582;2023-02-28T13:39:11;101664.88;;;5.42;49.91
48364;BME280;34170;54.364;18.582;2023-02-28T13:41:47;101657.91;;;5.57;49.91
48364;BME280;34170;54.364;18.582;2023-02-28T13:44:24;101656.09;;;5.57;49.85
48364;BME280;34170;54.364;18.582;2023-02-28T13:52:33;101650.06;;;5.53;50.31
48364;BME280;34170;54.364;18.582;2023-02-28T14:06:35;101638.44;;;5.20;51.51
48364;BME280;34170;54.364;18.582;2023-02-28T14:09:21;101625.25;;;5.34;51.52
48364;BME280;34170;54.364;18.582;2023-02-28T14:11:51;101627.78;;;5.37;51.76
48364;BME280;34170;54.364;18.582;2023-02-28T14:17:15;101615.56;;;5.33;51.72
48364;BME280;34170;54.364;18.582;2023-02-28T14:19:47;101615.38;;;5.36;51.78
48364;BME280;34170;54.364;18.582;2023-02-28T14:27:44;101621.25;;;5.43;52.37
48364;BME280;34170;54.364;18.582;2023-02-28T14:36:04;101626.66;;;5.41;53.89
48364;BME280;34170;54.364;18.582;2023-02-28T14:38:41;101626.03;;;5.53;54.24
48364;BME280;34170;54.364;18.582;2023-02-28T14:41:37;101625.00;;;5.56;55.54
48364;BME280;34170;54.364;18.582;2023-02-28T14:44:26;101621.09;;;5.46;55.78
48364;BME280;34170;54.364;18.582;2023-02-28T14:47:04;101634.59;;;5.25;56.36
48364;BME280;34170;54.364;18.582;2023-02-28T14:49:44;101624.75;;;4.91;59.48
48364;BME280;34170;54.364;18.582;2023-02-28T14:52:42;101626.69;;;5.06;58.31
48364;BME280;34170;54.364;18.582;2023-02-28T14:55:14;101615.53;;;5.15;57.36
48364;BME280;34170;54.364;18.582;2023-02-28T14:57:55;101624.94;;;5.05;58.79
48364;BME280;34170;54.364;18.582;2023-02-28T15:02:51;101622.41;;;5.02;59.51
48364;BME280;34170;54.364;18.582;2023-02-28T15:05:38;101606.84;;;4.58;61.55
48364;BME280;34170;54.364;18.582;2023-02-28T15:08:12;101610.63;;;4.71;62.13
48364;BME280;34170;54.364;18.582;2023-02-28T15:10:49;101598.88;;;4.93;60.26